createdAt,value
2023-03-10T00:00:29.104Z,2.45
2023-03-10T00:02:55.706Z,2.53
2023-03-10T00:05:22.328Z,2.28
2023-03-10T00:07:50.345Z,2.45
2023-03-10T00:10:17.967Z,2.05
2023-03-10T00:12:44.835Z,2.60
2023-03-10T00:15:12.420Z,2.72
2023-03-10T00:17:39.118Z,2.17
2023-03-10T00:20:08.167Z,2.40
2023-03-10T00:22:39.415Z,2.20
2023-03-10T00:25:07.477Z,3.20
2023-03-10T00:27:34.405Z,2.42
2023-03-10T00:30:01.106Z,2.00
2023-03-10T00:32:27.917Z,2.47
2023-03-10T00:34:54.593Z,2.10
2023-03-10T00:37:21.283Z,2.20
2023-03-10T00:39:52.524Z,2.30
2023-03-10T00:42:19.710Z,2.22
2023-03-10T00:44:47.083Z,1.73
2023-03-10T00:47:13.744Z,1.77
2023-03-10T00:49:40.385Z,2.22
2023-03-10T00:52:07.092Z,2.00
2023-03-10T00:54:33.709Z,1.95
2023-03-10T00:57:00.319Z,1.90
2023-03-10T00:59:28.359Z,1.70
2023-03-10T01:01:56.201Z,1.63
2023-03-10T01:04:22.857Z,1.80
2023-03-10T01:06:49.602Z,1.73
2023-03-10T01:09:16.705Z,1.77
2023-03-10T01:11:43.563Z,1.60
2023-03-10T01:14:14.032Z,1.67
2023-03-10T01:16:40.688Z,1.63
2023-03-10T01:19:07.427Z,1.88
2023-03-10T01:21:36.946Z,1.80
2023-03-10T01:24:04.585Z,1.70
2023-03-10T01:26:31.793Z,2.20
2023-03-10T01:28:58.514Z,1.65
2023-03-10T01:31:25.379Z,1.70
2023-03-10T01:33:52.034Z,1.73
2023-03-10T01:36:23.160Z,2.05
2023-03-10T01:38:50.371Z,2.03
2023-03-10T01:41:17.562Z,2.00
2023-03-10T01:43:50.091Z,1.67
2023-03-10T01:46:40.566Z,1.90
2023-03-10T01:49:27.968Z,1.95
2023-03-10T01:54:37.149Z,1.75
2023-03-10T01:57:06.166Z,1.33
2023-03-10T01:59:34.252Z,1.30
2023-03-10T02:02:02.203Z,1.70
2023-03-10T02:04:43.321Z,1.63
2023-03-10T02:07:11.868Z,2.00
2023-03-10T02:09:43.253Z,1.25
2023-03-10T02:12:11.646Z,2.22
2023-03-10T02:14:39.037Z,1.80
2023-03-10T02:17:09.018Z,1.83
2023-03-10T02:19:51.379Z,2.05
2023-03-10T02:22:18.068Z,2.05
2023-03-10T02:24:55.973Z,2.17
2023-03-10T02:27:27.113Z,2.58
2023-03-10T02:30:02.707Z,2.53
2023-03-10T02:32:33.011Z,2.30
2023-03-10T02:35:00.428Z,2.67
2023-03-10T02:37:32.202Z,2.95
2023-03-10T02:39:59.670Z,2.78
2023-03-10T02:42:33.755Z,2.50
2023-03-10T02:45:01.319Z,2.80
2023-03-10T02:47:27.950Z,2.60
2023-03-10T02:49:54.642Z,2.58
2023-03-10T02:52:41.255Z,2.88
2023-03-10T02:55:08.198Z,3.10
2023-03-10T02:57:34.796Z,2.67
2023-03-10T03:00:01.389Z,2.60
2023-03-10T03:02:28.201Z,2.78
2023-03-10T03:04:54.821Z,3.13
2023-03-10T03:07:21.452Z,2.63
2023-03-10T03:09:48.074Z,2.72
2023-03-10T03:12:14.783Z,2.42
2023-03-10T03:14:41.445Z,2.00
2023-03-10T03:17:08.026Z,2.45
2023-03-10T03:19:34.631Z,2.88
2023-03-10T03:22:01.286Z,2.88
2023-03-10T03:24:28.390Z,3.00
2023-03-10T03:26:54.985Z,2.65
2023-03-10T03:29:21.603Z,2.22
2023-03-10T03:31:48.299Z,2.00
2023-03-10T03:34:15.701Z,2.58
2023-03-10T03:36:42.353Z,2.33
2023-03-10T03:39:09.203Z,1.95
2023-03-10T03:41:35.837Z,2.00
2023-03-10T03:44:02.486Z,2.10
2023-03-10T03:46:29.158Z,2.17
2023-03-10T03:48:55.944Z,2.20
2023-03-10T03:51:22.527Z,2.17
2023-03-10T03:53:49.164Z,1.77
2023-03-10T03:56:15.768Z,2.38
2023-03-10T03:58:42.372Z,2.08
2023-03-10T04:01:09.922Z,2.35
2023-03-10T04:03:36.627Z,2.05
2023-03-10T04:06:03.284Z,1.70
2023-03-10T04:08:29.871Z,2.10
2023-03-10T04:10:56.549Z,1.63
2023-03-10T04:13:23.229Z,2.00
2023-03-10T04:15:58.729Z,1.90
2023-03-10T04:18:25.873Z,2.22
2023-03-10T04:20:52.508Z,2.08
2023-03-10T04:23:19.095Z,1.88
2023-03-10T04:25:45.723Z,1.60
2023-03-10T04:28:12.586Z,1.95
2023-03-10T04:30:42.749Z,2.05
2023-03-10T04:33:10.392Z,1.92
2023-03-10T04:35:44.585Z,1.55
2023-03-10T04:38:11.305Z,1.98
2023-03-10T04:40:37.941Z,1.90
2023-03-10T04:43:05.280Z,1.92
2023-03-10T04:45:31.922Z,1.45
2023-03-10T04:47:59.688Z,1.65
2023-03-10T04:50:26.590Z,1.33
2023-03-10T04:52:53.290Z,1.75
2023-03-10T04:55:19.951Z,1.70
2023-03-10T04:57:46.525Z,1.73
2023-03-10T05:00:13.476Z,2.15
2023-03-10T05:02:40.560Z,1.88
2023-03-10T05:05:07.742Z,1.50
2023-03-10T05:07:34.374Z,1.60
2023-03-10T05:10:01.026Z,1.80
2023-03-10T05:12:27.719Z,1.77
2023-03-10T05:14:54.375Z,1.60
2023-03-10T05:17:21.111Z,1.85
2023-03-10T05:19:47.725Z,2.22
2023-03-10T05:22:14.343Z,2.10
2023-03-10T05:24:40.971Z,2.25
2023-03-10T05:27:08.738Z,2.10
2023-03-10T05:29:35.457Z,2.22
2023-03-10T05:32:02.103Z,2.33
2023-03-10T05:34:28.752Z,2.55
2023-03-10T05:36:56.452Z,2.33
2023-03-10T05:39:23.538Z,2.47
2023-03-10T05:41:50.148Z,2.50
2023-03-10T05:44:16.777Z,3.25
2023-03-10T05:46:43.590Z,2.45
2023-03-10T05:49:10.947Z,3.00
2023-03-10T05:51:37.617Z,3.35
2023-03-10T05:54:06.245Z,3.33
2023-03-10T05:56:33.173Z,3.35
2023-03-10T05:58:59.881Z,2.97
2023-03-10T06:01:26.561Z,3.30
2023-03-10T06:03:53.225Z,2.72
2023-03-10T06:06:20.197Z,2.65
2023-03-10T06:08:46.849Z,3.08
2023-03-10T06:11:13.475Z,2.90
2023-03-10T06:13:40.096Z,3.47
2023-03-10T06:16:07.424Z,2.53
2023-03-10T06:18:34.997Z,3.08
2023-03-10T06:21:07.904Z,2.35
2023-03-10T06:23:34.652Z,2.53
2023-03-10T06:26:06.903Z,2.83
2023-03-10T06:28:36.757Z,2.88
2023-03-10T06:31:07.006Z,2.38
2023-03-10T06:33:33.927Z,2.53
2023-03-10T06:36:00.989Z,2.70
2023-03-10T06:38:28.340Z,2.20
2023-03-10T06:40:55.345Z,2.13
2023-03-10T06:43:22.220Z,1.75
2023-03-10T06:45:48.938Z,1.65
2023-03-10T06:48:16.324Z,1.73
2023-03-10T06:50:45.310Z,1.67
2023-03-10T06:53:11.921Z,1.70
2023-03-10T06:55:38.587Z,1.63
2023-03-10T06:58:05.758Z,1.60
2023-03-10T07:00:32.456Z,1.60
2023-03-10T07:02:59.411Z,1.55
2023-03-10T07:05:27.380Z,1.27
2023-03-10T07:07:55.515Z,1.60
2023-03-10T07:10:23.032Z,1.30
2023-03-10T07:12:55.233Z,1.60
2023-03-10T07:15:26.997Z,1.27
2023-03-10T07:17:56.185Z,1.52
2023-03-10T07:20:24.006Z,1.70
2023-03-10T07:22:50.991Z,2.08
2023-03-10T07:25:17.700Z,1.40
2023-03-10T07:27:44.362Z,1.75
2023-03-10T07:30:11.506Z,1.95
2023-03-10T07:32:38.217Z,2.35
2023-03-10T07:35:05.320Z,2.10
2023-03-10T07:37:32.132Z,2.08
2023-03-10T07:39:58.822Z,2.05
2023-03-10T07:42:25.482Z,2.40
2023-03-10T07:44:52.109Z,2.17
2023-03-10T07:47:18.975Z,1.95
2023-03-10T07:49:47.044Z,1.90
2023-03-10T07:52:15.464Z,2.15
2023-03-10T07:54:42.213Z,1.73
2023-03-10T07:57:08.852Z,1.70
2023-03-10T07:59:36.174Z,1.75
2023-03-10T08:02:02.856Z,1.98
2023-03-10T08:04:29.667Z,1.77
2023-03-10T08:06:56.662Z,2.20
2023-03-10T08:09:23.285Z,2.20
2023-03-10T08:11:50.008Z,2.50
2023-03-10T08:14:20.926Z,2.35
2023-03-10T08:16:47.694Z,2.55
2023-03-10T08:19:14.304Z,2.08
2023-03-10T08:21:41.157Z,2.58
2023-03-10T08:24:07.837Z,2.70
2023-03-10T08:26:34.493Z,2.40
2023-03-10T08:29:01.294Z,1.85
2023-03-10T08:31:28.502Z,1.55
2023-03-10T08:33:57.179Z,1.98
2023-03-10T08:36:27.713Z,1.60
2023-03-10T08:38:56.001Z,1.90
2023-03-10T08:41:28.529Z,1.75
2023-03-10T08:43:57.092Z,1.85
2023-03-10T08:46:26.394Z,1.65
2023-03-10T08:48:53.635Z,1.98
2023-03-10T08:51:21.137Z,2.00
2023-03-10T08:53:49.915Z,1.73
2023-03-10T08:56:18.789Z,1.70
2023-03-10T08:58:47.457Z,1.90
2023-03-10T09:01:16.474Z,2.15
2023-03-10T09:03:45.323Z,1.83
2023-03-10T09:06:12.287Z,1.92
2023-03-10T09:08:39.962Z,2.10
2023-03-10T09:11:07.449Z,2.00
2023-03-10T09:13:34.180Z,2.17
2023-03-10T09:16:00.932Z,2.58
2023-03-10T09:18:27.758Z,1.63
2023-03-10T09:20:54.537Z,1.77
2023-03-10T09:23:21.282Z,1.90
2023-03-10T09:25:48.036Z,2.30
2023-03-10T09:28:17.408Z,1.92
2023-03-10T09:30:45.646Z,2.55
2023-03-10T09:33:21.081Z,2.22
2023-03-10T09:36:05.077Z,2.65
2023-03-10T09:38:32.143Z,2.63
2023-03-10T09:41:05.041Z,2.80
2023-03-10T09:43:38.162Z,2.88
2023-03-10T09:46:23.194Z,2.70
2023-03-10T09:49:01.938Z,2.80
2023-03-10T09:51:29.412Z,3.28
2023-03-10T09:54:15.237Z,2.85
2023-03-10T09:56:42.084Z,2.53
2023-03-10T09:59:26.293Z,2.63
2023-03-10T10:01:54.294Z,2.42
2023-03-10T10:04:35.453Z,2.28
2023-03-10T10:07:05.734Z,2.60
2023-03-10T10:09:42.540Z,2.05
2023-03-10T10:14:42.605Z,2.08
2023-03-10T10:17:29.843Z,2.50
2023-03-10T10:19:57.691Z,2.33
2023-03-10T10:22:31.358Z,2.40
2023-03-10T10:25:10.407Z,2.60
2023-03-10T10:27:38.059Z,2.78
2023-03-10T10:30:32.336Z,2.92
2023-03-10T10:33:07.565Z,2.95
2023-03-10T10:35:39.813Z,3.10
2023-03-10T10:38:11.222Z,3.42
2023-03-10T10:40:57.226Z,3.10
2023-03-10T10:43:23.987Z,3.00
2023-03-10T10:45:57.062Z,3.28
2023-03-10T10:48:36.459Z,3.15
2023-03-10T10:51:04.808Z,3.20
2023-03-10T10:53:35.612Z,2.67
2023-03-10T10:56:19.562Z,2.60
2023-03-10T10:59:02.592Z,3.00
2023-03-10T11:01:49.394Z,2.58
2023-03-10T11:04:18.743Z,3.40
2023-03-10T11:06:46.405Z,2.90
2023-03-10T11:09:23.571Z,2.55
2023-03-10T11:11:57.232Z,3.10
2023-03-10T11:14:38.883Z,2.42
2023-03-10T11:17:24.426Z,1.92
2023-03-10T11:20:00.874Z,2.13
2023-03-10T11:22:39.188Z,2.25
2023-03-10T11:25:24.718Z,1.95
2023-03-10T11:28:19.155Z,2.45
2023-03-10T11:31:23.247Z,1.88
2023-03-10T11:34:09.463Z,2.25
2023-03-10T11:36:55.922Z,2.50
2023-03-10T11:39:39.065Z,2.38
2023-03-10T11:42:14.545Z,2.53
2023-03-10T11:45:07.580Z,1.80
2023-03-10T11:47:53.979Z,2.22
2023-03-10T11:50:48.160Z,2.53
2023-03-10T11:53:37.566Z,2.25
2023-03-10T11:56:06.135Z,1.85
2023-03-10T11:58:43.284Z,2.30
2023-03-10T12:01:14.949Z,1.83
2023-03-10T12:04:11.411Z,1.88
2023-03-10T12:06:47.060Z,2.25
2023-03-10T12:09:39.786Z,1.83
2023-03-10T12:12:07.900Z,2.05
2023-03-10T12:14:36.446Z,2.13
2023-03-10T12:17:05.913Z,1.77
2023-03-10T12:19:32.716Z,1.73
2023-03-10T12:22:39.190Z,1.85
2023-03-10T12:25:46.324Z,2.67
2023-03-10T12:28:24.948Z,1.70
2023-03-10T12:30:57.475Z,1.60
2023-03-10T12:33:42.610Z,1.65
2023-03-10T12:36:33.447Z,1.83
2023-03-10T12:39:19.806Z,2.08
2023-03-10T12:41:54.492Z,1.40
2023-03-10T12:44:33.401Z,1.10
2023-03-10T12:47:09.041Z,1.40
2023-03-10T12:49:41.924Z,1.50
2023-03-10T12:52:30.889Z,1.20
2023-03-10T12:55:21.889Z,1.35
2023-03-10T12:57:59.192Z,1.17
2023-03-10T13:00:25.791Z,1.30
2023-03-10T13:03:11.602Z,1.10
2023-03-10T13:05:42.448Z,1.20
2023-03-10T13:08:24.759Z,0.98
2023-03-10T13:10:56.265Z,1.50
2023-03-10T13:13:30.863Z,1.50
2023-03-10T13:16:03.362Z,0.95
2023-03-10T13:18:30.849Z,1.75
2023-03-10T13:21:01.837Z,1.40
2023-03-10T13:23:34.715Z,1.40
2023-03-10T13:26:06.898Z,1.75
2023-03-10T13:28:35.791Z,1.75
2023-03-10T13:31:14.922Z,1.67
2023-03-10T13:33:52.790Z,1.25
2023-03-10T13:36:38.828Z,1.63
2023-03-10T13:39:26.612Z,1.33
2023-03-10T13:42:00.267Z,1.40
2023-03-10T13:44:32.050Z,1.30
2023-03-10T13:47:00.994Z,1.25
2023-03-10T13:49:32.158Z,1.38
2023-03-10T13:52:13.560Z,1.38
2023-03-10T13:54:42.419Z,1.30
2023-03-10T13:57:32.955Z,1.30
2023-03-10T14:00:00.819Z,1.80
2023-03-10T14:02:33.303Z,1.13
2023-03-10T14:05:01.003Z,1.15
2023-03-10T14:07:31.426Z,1.30
2023-03-10T14:10:03.961Z,1.00
2023-03-10T14:12:48.904Z,0.90
2023-03-10T14:15:32.426Z,1.20
2023-03-10T14:18:09.608Z,0.90
2023-03-10T14:20:40.441Z,2.38
2023-03-10T14:23:18.944Z,1.15
2023-03-10T14:25:50.522Z,1.17
2023-03-10T14:28:29.882Z,1.25
2023-03-10T14:30:58.777Z,1.40
2023-03-10T14:33:27.537Z,1.35
2023-03-10T14:35:54.445Z,1.23
2023-03-10T14:38:21.356Z,1.83
2023-03-10T14:40:51.597Z,1.27
2023-03-10T14:43:28.768Z,1.02
2023-03-10T14:45:58.870Z,0.85
2023-03-10T14:48:28.393Z,1.10
2023-03-10T14:50:56.973Z,1.13
2023-03-10T14:53:25.857Z,1.38
2023-03-10T14:55:55.008Z,1.20
2023-03-10T14:58:32.910Z,1.80
2023-03-10T15:01:00.876Z,1.80
2023-03-10T15:03:27.880Z,1.50
2023-03-10T15:05:54.578Z,1.70
2023-03-10T15:08:21.228Z,1.50
2023-03-10T15:10:52.838Z,1.70
2023-03-10T15:13:22.781Z,1.80
2023-03-10T15:15:50.288Z,1.33
2023-03-10T15:18:21.760Z,1.58
2023-03-10T15:20:49.022Z,2.45
2023-03-10T15:23:19.877Z,1.40
2023-03-10T15:25:48.572Z,1.52
2023-03-10T15:28:15.331Z,1.42
2023-03-10T15:30:42.391Z,1.83
2023-03-10T15:33:11.336Z,1.80
2023-03-10T15:35:39.980Z,1.50
2023-03-10T15:38:07.418Z,1.35
2023-03-10T15:40:35.403Z,1.20
2023-03-10T15:43:04.359Z,1.45
2023-03-10T15:45:32.994Z,1.48
2023-03-10T15:47:59.805Z,1.60
2023-03-10T15:50:26.618Z,1.63
2023-03-10T15:52:56.063Z,1.52
2023-03-10T15:55:24.551Z,1.60
2023-03-10T15:57:51.404Z,1.75
2023-03-10T16:00:22.088Z,1.20
2023-03-10T16:02:50.121Z,1.65
2023-03-10T16:05:17.802Z,1.33
2023-03-10T16:07:44.855Z,2.03
2023-03-10T16:10:14.068Z,1.50
2023-03-10T16:12:40.879Z,1.48
2023-03-10T16:15:08.228Z,1.77
2023-03-10T16:17:34.839Z,1.15
2023-03-10T16:20:06.579Z,1.27
2023-03-10T16:22:33.465Z,1.77
2023-03-10T16:25:00.166Z,1.40
2023-03-10T16:27:28.222Z,1.52
2023-03-10T16:29:54.861Z,1.50
2023-03-10T16:32:21.955Z,1.55
2023-03-10T16:34:48.638Z,1.52
2023-03-10T16:37:15.641Z,1.30
2023-03-10T16:39:44.141Z,1.30
2023-03-10T16:42:10.734Z,1.50
2023-03-10T16:44:37.404Z,1.40
2023-03-10T16:47:04.134Z,1.33
2023-03-10T16:49:33.139Z,1.60
2023-03-10T16:51:59.913Z,1.33
2023-03-10T16:54:26.517Z,1.35
2023-03-10T16:57:00.082Z,1.30
2023-03-10T16:59:27.870Z,1.67
2023-03-10T17:01:54.676Z,1.23
2023-03-10T17:04:21.918Z,2.38
2023-03-10T17:06:49.008Z,1.55
2023-03-10T17:09:16.708Z,2.15
2023-03-10T17:11:54.877Z,1.67
2023-03-10T17:14:21.984Z,1.50
2023-03-10T17:16:49.007Z,1.75
2023-03-10T17:19:19.167Z,2.22
2023-03-10T17:21:49.094Z,1.92
2023-03-10T17:24:18.177Z,2.25
2023-03-10T17:26:45.616Z,2.25
2023-03-10T17:29:13.001Z,1.65
2023-03-10T17:31:39.856Z,1.50
2023-03-10T17:34:12.608Z,2.03
2023-03-10T17:36:39.601Z,1.75
2023-03-10T17:39:07.266Z,1.60
2023-03-10T17:41:35.864Z,1.50
2023-03-10T17:44:04.795Z,1.52
2023-03-10T17:46:31.993Z,1.30
2023-03-10T17:49:00.315Z,1.88
2023-03-10T17:51:30.127Z,1.65
2023-03-10T17:53:58.971Z,1.60
2023-03-10T17:56:26.077Z,1.38
2023-03-10T17:58:54.700Z,1.67
2023-03-10T18:01:26.013Z,1.52
2023-03-10T18:03:53.781Z,1.95
2023-03-10T18:06:23.447Z,2.38
2023-03-10T18:08:50.797Z,2.00
2023-03-10T18:11:18.977Z,2.10
2023-03-10T18:13:45.591Z,2.22
2023-03-10T18:16:23.195Z,2.78
2023-03-10T18:18:49.912Z,2.38
2023-03-10T18:21:17.832Z,2.22
2023-03-10T18:23:45.645Z,2.20
2023-03-10T18:26:18.185Z,2.17
2023-03-10T18:28:45.139Z,2.22
2023-03-10T18:31:18.528Z,2.10
2023-03-10T18:33:45.840Z,2.83
2023-03-10T18:36:17.062Z,2.88
2023-03-10T18:38:47.741Z,3.25
2023-03-10T18:41:14.497Z,3.60
2023-03-10T18:43:41.100Z,2.95
2023-03-10T18:46:08.479Z,2.78
2023-03-10T18:48:35.286Z,2.53
2023-03-10T18:51:02.553Z,2.88
2023-03-10T18:53:29.730Z,2.67
2023-03-10T18:55:58.762Z,2.80
2023-03-10T18:58:25.970Z,2.95
2023-03-10T19:00:52.840Z,3.30
2023-03-10T19:03:19.509Z,3.05
2023-03-10T19:05:46.315Z,2.80
2023-03-10T19:08:13.025Z,2.70
2023-03-10T19:10:39.894Z,3.47
2023-03-10T19:13:07.792Z,3.10
2023-03-10T19:15:34.892Z,3.50
2023-03-10T19:18:01.532Z,3.55
2023-03-10T19:20:28.138Z,4.40
2023-03-10T19:22:54.797Z,4.03
2023-03-10T19:25:23.195Z,4.60
2023-03-10T19:27:49.800Z,5.40
2023-03-10T19:30:22.670Z,6.28
2023-03-10T19:32:49.434Z,6.97
2023-03-10T19:35:16.784Z,7.20
2023-03-10T19:37:43.663Z,6.60
2023-03-10T19:40:16.652Z,8.15
2023-03-10T19:42:44.361Z,9.95
2023-03-10T19:45:14.184Z,9.57
2023-03-10T19:47:41.742Z,10.18
2023-03-10T19:50:15.715Z,12.82
2023-03-10T19:52:47.730Z,10.75
2023-03-10T19:55:19.567Z,12.57
2023-03-10T19:57:48.696Z,12.80
2023-03-10T20:00:18.785Z,11.73
2023-03-10T20:02:45.711Z,12.77
2023-03-10T20:05:14.498Z,15.98
2023-03-10T20:07:42.722Z,17.42
2023-03-10T20:10:10.642Z,14.70
2023-03-10T20:12:37.518Z,14.00
2023-03-10T20:15:05.678Z,14.30
2023-03-10T20:17:32.473Z,13.30
2023-03-10T20:19:59.215Z,13.18
2023-03-10T20:22:25.916Z,13.95
2023-03-10T20:24:52.659Z,12.43
2023-03-10T20:27:19.323Z,12.45
2023-03-10T20:29:45.987Z,12.05
2023-03-10T20:32:12.639Z,12.65
2023-03-10T20:34:41.265Z,11.50
2023-03-10T20:37:08.125Z,12.48
2023-03-10T20:39:35.007Z,12.10
2023-03-10T20:42:01.705Z,13.40
2023-03-10T20:44:28.381Z,11.98
2023-03-10T20:46:55.050Z,11.35
2023-03-10T20:49:21.649Z,11.05
2023-03-10T20:51:48.365Z,10.43
2023-03-10T20:54:15.101Z,10.98
2023-03-10T20:56:41.927Z,11.50
2023-03-10T20:59:08.535Z,11.38
2023-03-10T21:01:39.731Z,12.50
2023-03-10T21:04:06.648Z,12.15
2023-03-10T21:06:33.360Z,10.73
2023-03-10T21:09:05.718Z,12.50
2023-03-10T21:11:34.088Z,12.15
2023-03-10T21:14:02.090Z,11.77
2023-03-10T21:16:28.855Z,10.85
2023-03-10T21:18:55.856Z,12.85
2023-03-10T21:21:22.552Z,11.23
2023-03-10T21:23:49.705Z,11.93
2023-03-10T21:26:20.052Z,11.95
2023-03-10T21:28:46.992Z,12.90
2023-03-10T21:31:14.507Z,13.20
2023-03-10T21:33:44.605Z,14.15
2023-03-10T21:36:15.359Z,14.43
2023-03-10T21:38:42.528Z,13.20
2023-03-10T21:41:09.314Z,13.68
2023-03-10T21:43:36.006Z,14.90
2023-03-10T21:46:02.786Z,14.40
2023-03-10T21:48:29.514Z,15.35
2023-03-10T21:50:56.183Z,14.75
2023-03-10T21:53:26.441Z,15.35
2023-03-10T21:55:54.326Z,15.20
2023-03-10T21:58:23.497Z,14.45
2023-03-10T22:00:50.100Z,16.58
2023-03-10T22:03:17.505Z,17.92
2023-03-10T22:05:44.489Z,16.13
2023-03-10T22:08:11.123Z,16.48
2023-03-10T22:10:37.721Z,17.23
2023-03-10T22:13:04.413Z,16.92
2023-03-10T22:15:31.254Z,16.75
2023-03-10T22:17:58.191Z,15.60
2023-03-10T22:20:26.531Z,15.05
2023-03-10T22:22:53.443Z,15.88
2023-03-10T22:25:20.509Z,15.27
2023-03-10T22:27:55.221Z,16.73
2023-03-10T22:30:24.572Z,14.82
2023-03-10T22:32:51.234Z,14.85
2023-03-10T22:35:19.012Z,15.20
2023-03-10T22:37:45.910Z,16.77
2023-03-10T22:40:16.240Z,16.30
2023-03-10T22:42:44.557Z,15.65
2023-03-10T22:45:26.643Z,16.83
2023-03-10T22:47:57.270Z,16.52
2023-03-10T22:50:27.059Z,16.23
2023-03-10T22:52:53.859Z,14.38
2023-03-10T22:55:26.087Z,16.02
2023-03-10T22:57:53.468Z,15.05
2023-03-10T23:00:22.376Z,15.70
2023-03-10T23:02:50.344Z,14.55
2023-03-10T23:05:17.374Z,14.35
2023-03-10T23:07:44.537Z,15.63
2023-03-10T23:10:30.566Z,15.55
2023-03-10T23:12:59.809Z,14.82
2023-03-10T23:15:29.579Z,15.32
2023-03-10T23:17:57.267Z,16.30
2023-03-10T23:20:29.672Z,16.55
2023-03-10T23:22:58.679Z,15.73
2023-03-10T23:25:25.327Z,15.38
2023-03-10T23:27:52.030Z,15.25
2023-03-10T23:30:19.336Z,16.33
2023-03-10T23:32:48.175Z,15.13
2023-03-10T23:35:18.163Z,13.77
2023-03-10T23:37:45.129Z,14.70
2023-03-10T23:40:15.912Z,15.23
2023-03-10T23:42:43.289Z,16.70
2023-03-10T23:45:13.046Z,15.20
2023-03-10T23:47:40.746Z,16.92
2023-03-10T23:50:08.786Z,15.73
2023-03-10T23:52:35.560Z,19.70
2023-03-10T23:55:02.327Z,17.63
2023-03-10T23:57:28.922Z,16.23
2023-03-10T23:59:55.643Z,17.92
